< < Back
Terminal Aerodrome Forecast


Current Version              Previous Versions:   1  2  3  4  5  6  7  8  9  

Terminal Aerodrome Forecast

723
FTUS42 KGSP 291738
TAFAND
TAF
KAND 291738Z 2918/3018 VRB04KT P6SM SCT030 BKN100
     FM292100 12007KT P6SM SCT060
     FM300200 10003KT P6SM SCT250
     FM301100 00000KT 5SM BR BKN011
     FM301300 00000KT P6SM BKN011
     FM301500 16003KT P6SM SCT018=



Latest METAR

478
SAUS70 KWBC 300200
MTRAND
METAR KAND 300156Z AUTO 00000KT 10SM CLR 22/17 A3017 RMK AO2 SLP210
T02170167


USA.gov is the U.S. government's official web portal to all federal, state and local government web resources and services.